createdAt,value
2019-03-12T00:01:56.945Z,5.53
2019-03-12T00:04:28.753Z,14.00
2019-03-12T00:07:00.941Z,9.43
2019-03-12T00:09:32.165Z,8.80
2019-03-12T00:12:05.406Z,9.48
2019-03-12T00:14:38.857Z,4.30
2019-03-12T00:17:09.913Z,6.43
2019-03-12T00:19:41.056Z,4.55
2019-03-12T00:22:12.504Z,5.95
2019-03-12T00:24:43.640Z,5.47
2019-03-12T00:27:14.734Z,7.67
2019-03-12T00:29:45.833Z,8.33
2019-03-12T00:32:17.286Z,7.03
2019-03-12T00:34:48.268Z,18.10
2019-03-12T00:37:20.594Z,23.32
2019-03-12T00:39:52.154Z,10.48
2019-03-12T00:42:23.320Z,6.37
2019-03-12T00:44:54.783Z,6.37
2019-03-12T00:47:26.002Z,5.17
2019-03-12T00:49:57.278Z,6.47
2019-03-12T00:52:28.902Z,9.00
2019-03-12T00:55:00.374Z,11.80
2019-03-12T00:57:31.596Z,15.70
2019-03-12T01:00:04.613Z,17.75
2019-03-12T01:05:08.749Z,2.92
2019-03-12T01:07:42.314Z,1.98
2019-03-12T01:10:15.554Z,3.40
2019-03-12T01:12:46.582Z,4.20
2019-03-12T01:15:17.701Z,2.30
2019-03-12T01:17:48.968Z,4.17
2019-03-12T01:20:20.090Z,3.85
2019-03-12T01:22:53.214Z,3.43
2019-03-12T01:25:24.277Z,3.37
2019-03-12T01:27:55.393Z,4.45
2019-03-12T01:30:26.668Z,5.35
2019-03-12T01:32:57.847Z,4.00
2019-03-12T01:35:28.899Z,4.83
2019-03-12T01:38:00.137Z,8.95
2019-03-12T01:40:31.284Z,4.30
2019-03-12T01:43:02.542Z,4.78
2019-03-12T01:45:33.714Z,3.77
2019-03-12T01:48:04.737Z,5.92
2019-03-12T01:50:35.971Z,4.60
2019-03-12T01:53:08.387Z,6.17
2019-03-12T01:55:40.747Z,8.05
2019-03-12T01:58:14.527Z,4.90
2019-03-12T02:00:44.557Z,3.02
2019-03-12T02:03:17.461Z,1.90
2019-03-12T02:05:48.683Z,6.75
2019-03-12T02:08:19.830Z,16.20
2019-03-12T02:10:51.002Z,24.77
2019-03-12T02:13:22.113Z,23.98
2019-03-12T02:15:53.433Z,25.97
2019-03-12T02:18:25.638Z,8.08
2019-03-12T02:20:57.603Z,12.55
2019-03-12T02:23:29.717Z,11.73
2019-03-12T02:26:00.709Z,11.53
2019-03-12T02:28:31.954Z,10.13
2019-03-12T02:31:03.215Z,15.40
2019-03-12T02:33:34.351Z,7.00
2019-03-12T02:36:05.695Z,8.18
2019-03-12T02:38:36.723Z,20.40
2019-03-12T02:41:07.784Z,19.20
2019-03-12T02:43:39.037Z,10.43
2019-03-12T02:46:10.045Z,4.00
2019-03-12T02:48:41.214Z,2.92
2019-03-12T02:51:12.379Z,3.80
2019-03-12T02:53:43.553Z,5.83
2019-03-12T02:56:14.649Z,4.30
2019-03-12T02:58:45.792Z,3.40
2019-03-12T03:01:16.740Z,3.33
2019-03-12T03:03:49.569Z,2.58
2019-03-12T03:06:22.523Z,3.02
2019-03-12T03:08:53.753Z,4.37
2019-03-12T03:11:24.761Z,3.45
2019-03-12T03:13:55.775Z,5.30
2019-03-12T03:16:26.908Z,4.00
2019-03-12T03:18:57.811Z,4.65
2019-03-12T03:21:28.762Z,5.08
2019-03-12T03:23:59.805Z,4.42
2019-03-12T03:26:31.101Z,5.17
2019-03-12T03:29:02.293Z,3.87
2019-03-12T03:31:33.590Z,8.23
2019-03-12T03:34:04.777Z,5.10
2019-03-12T03:36:38.083Z,3.27
2019-03-12T03:39:09.177Z,4.80
2019-03-12T03:41:40.417Z,5.55
2019-03-12T03:44:11.417Z,4.65
2019-03-12T03:46:42.682Z,5.78
2019-03-12T03:49:13.883Z,5.50
2019-03-12T03:51:46.180Z,13.20
2019-03-12T03:54:17.526Z,11.48
2019-03-12T03:56:48.719Z,16.37
2019-03-12T03:59:19.836Z,15.93
2019-03-12T04:01:59.329Z,13.28
2019-03-12T04:04:32.198Z,13.88
2019-03-12T04:07:03.292Z,8.98
2019-03-12T04:09:34.760Z,6.40
2019-03-12T04:12:05.791Z,7.40
2019-03-12T04:14:37.137Z,6.67
2019-03-12T04:17:08.803Z,8.88
2019-03-12T04:19:40.035Z,7.75
2019-03-12T04:22:11.390Z,8.68
2019-03-12T04:24:42.750Z,8.25
2019-03-12T04:27:13.762Z,10.38
2019-03-12T04:29:45.031Z,8.18
2019-03-12T04:32:16.240Z,12.50
2019-03-12T04:34:47.312Z,22.13
2019-03-12T04:37:18.378Z,20.00
2019-03-12T04:39:49.503Z,16.70
2019-03-12T04:42:24.909Z,11.78
2019-03-12T04:44:56.003Z,14.53
2019-03-12T04:47:27.242Z,13.70
2019-03-12T04:49:58.307Z,12.80
2019-03-12T04:52:29.579Z,12.63
2019-03-12T04:55:01.824Z,14.40
2019-03-12T04:57:33.035Z,13.95
2019-03-12T05:00:07.611Z,17.50
2019-03-12T05:02:38.924Z,16.97
2019-03-12T05:05:11.711Z,16.45
2019-03-12T05:07:44.196Z,16.48
2019-03-12T05:10:16.412Z,16.55
2019-03-12T05:12:47.407Z,13.03
2019-03-12T05:15:19.854Z,20.35
2019-03-12T05:17:50.907Z,13.85
2019-03-12T05:20:21.885Z,12.45
2019-03-12T05:22:53.019Z,21.23
2019-03-12T05:25:24.152Z,15.75
2019-03-12T05:27:56.275Z,15.55
2019-03-12T05:30:27.474Z,21.97
2019-03-12T05:32:59.628Z,23.85
2019-03-12T05:35:30.904Z,26.85
2019-03-12T05:38:04.063Z,30.50
2019-03-12T05:40:36.114Z,29.10
2019-03-12T05:43:07.765Z,19.73
2019-03-12T05:45:39.066Z,24.32
2019-03-12T05:48:10.921Z,16.12
2019-03-12T05:50:43.825Z,17.60
2019-03-12T05:53:15.315Z,21.75
2019-03-12T05:55:46.685Z,20.08
2019-03-12T05:58:17.933Z,20.88
2019-03-12T06:00:50.323Z,23.27
2019-03-12T06:03:21.902Z,23.10
2019-03-12T06:05:53.881Z,30.65
2019-03-12T06:08:25.608Z,33.38
2019-03-12T06:10:56.794Z,26.07
2019-03-12T06:13:28.243Z,27.37
2019-03-12T06:15:59.657Z,25.92
2019-03-12T06:18:30.945Z,30.52
2019-03-12T06:21:02.199Z,25.15
2019-03-12T06:23:34.513Z,21.80
2019-03-12T06:26:06.057Z,39.50
2019-03-12T06:28:37.586Z,30.50
2019-03-12T06:31:13.770Z,42.75
2019-03-12T06:33:52.758Z,44.67
2019-03-12T06:36:31.986Z,48.83
2019-03-12T06:39:21.509Z,50.35
2019-03-12T06:42:07.893Z,38.65
2019-03-12T06:44:41.344Z,42.40
2019-03-12T06:47:30.496Z,38.38
2019-03-12T06:50:12.474Z,35.45
2019-03-12T06:52:48.946Z,42.75
2019-03-12T06:55:28.740Z,39.60
2019-03-12T06:58:07.083Z,38.73
2019-03-12T07:00:45.930Z,36.17
2019-03-12T07:03:21.590Z,37.78
2019-03-12T07:05:54.238Z,34.03
2019-03-12T07:08:46.503Z,33.77
2019-03-12T07:11:37.015Z,30.32
2019-03-12T07:14:15.635Z,29.52
2019-03-12T07:16:54.285Z,32.38
2019-03-12T07:19:27.274Z,33.05
2019-03-12T07:22:02.827Z,34.03
2019-03-12T07:25:01.991Z,30.88
2019-03-12T07:27:44.092Z,29.05
2019-03-12T07:30:33.929Z,15.32
2019-03-12T07:33:16.267Z,14.18
2019-03-12T07:35:58.076Z,8.10
2019-03-12T07:38:31.489Z,9.58
2019-03-12T07:41:26.502Z,13.78
2019-03-12T07:43:53.625Z,20.00
2019-03-12T07:46:27.984Z,11.57
2019-03-12T07:49:09.954Z,11.78
2019-03-12T07:51:57.571Z,14.95
2019-03-12T07:54:48.989Z,12.68
2019-03-12T07:57:24.683Z,14.23
2019-03-12T08:00:02.037Z,11.43
2019-03-12T08:02:45.810Z,13.32
2019-03-12T08:05:34.508Z,13.62
2019-03-12T08:08:19.525Z,15.23
2019-03-12T08:11:09.872Z,17.65
2019-03-12T08:13:48.923Z,16.32
2019-03-12T08:16:36.762Z,15.45
2019-03-12T08:19:12.515Z,12.07
2019-03-12T08:21:50.428Z,9.88
2019-03-12T08:24:29.683Z,10.60
2019-03-12T08:27:15.353Z,12.73
2019-03-12T08:29:53.932Z,13.32
2019-03-12T08:32:42.277Z,15.58
2019-03-12T08:35:15.012Z,14.65
2019-03-12T08:37:50.425Z,14.23
2019-03-12T08:40:26.008Z,14.13
2019-03-12T08:43:06.229Z,18.37
2019-03-12T08:45:45.393Z,15.10
2019-03-12T08:48:34.350Z,8.45
2019-03-12T08:51:10.686Z,12.28
2019-03-12T08:53:43.661Z,9.78
2019-03-12T08:56:20.198Z,8.58
2019-03-12T08:59:01.890Z,6.60
2019-03-12T09:01:42.631Z,6.17
2019-03-12T09:04:15.552Z,7.85
2019-03-12T09:06:48.405Z,7.10
2019-03-12T09:09:29.031Z,10.53
2019-03-12T09:12:08.092Z,7.53
2019-03-12T09:14:44.249Z,6.97
2019-03-12T09:17:22.563Z,9.28
2019-03-12T09:20:03.548Z,6.20
2019-03-12T09:22:46.864Z,7.62
2019-03-12T09:25:23.466Z,14.13
2019-03-12T09:28:15.785Z,9.00
2019-03-12T09:31:05.745Z,10.05
2019-03-12T09:33:38.522Z,6.72
2019-03-12T09:36:18.192Z,12.43
2019-03-12T09:38:50.952Z,5.17
2019-03-12T09:41:23.856Z,7.70
2019-03-12T09:43:56.760Z,4.47
2019-03-12T09:46:32.486Z,7.20
2019-03-12T09:49:08.353Z,6.33
2019-03-12T09:51:44.180Z,6.30
2019-03-12T09:54:32.496Z,11.38
2019-03-12T09:57:20.619Z,16.00
2019-03-12T10:00:16.122Z,10.00
2019-03-12T10:03:01.731Z,11.95
2019-03-12T10:05:46.326Z,8.75
2019-03-12T10:08:19.671Z,12.53
2019-03-12T10:11:05.498Z,7.90
2019-03-12T10:13:54.140Z,9.95
2019-03-12T10:16:29.897Z,10.63
2019-03-12T10:19:02.542Z,10.55
2019-03-12T10:21:35.290Z,14.68
2019-03-12T10:24:20.813Z,3.83
2019-03-12T10:26:54.593Z,8.45
2019-03-12T10:29:44.984Z,7.25
2019-03-12T10:32:24.038Z,8.23
2019-03-12T10:34:59.002Z,11.88
2019-03-12T10:37:41.914Z,10.70
2019-03-12T10:40:26.567Z,8.78
2019-03-12T10:43:07.705Z,3.95
2019-03-12T10:45:54.214Z,8.38
2019-03-12T10:48:31.230Z,8.48
2019-03-12T10:51:06.734Z,7.95
2019-03-12T10:53:38.353Z,8.87
2019-03-12T10:56:13.114Z,11.20
2019-03-12T10:58:50.190Z,8.55
2019-03-12T11:01:23.090Z,7.45
2019-03-12T11:04:09.631Z,3.37
2019-03-12T11:06:40.714Z,3.55
2019-03-12T11:09:12.948Z,7.03
2019-03-12T11:11:44.089Z,6.22
2019-03-12T11:14:16.382Z,8.88
2019-03-12T11:16:47.532Z,5.60
2019-03-12T11:19:19.045Z,5.42
2019-03-12T11:21:50.450Z,8.30
2019-03-12T11:24:23.131Z,7.50
2019-03-12T11:26:56.387Z,6.92
2019-03-12T11:29:27.604Z,7.87
2019-03-12T11:32:00.428Z,3.35
2019-03-12T11:34:31.579Z,9.40
2019-03-12T11:37:02.945Z,5.87
2019-03-12T11:39:34.233Z,4.45
2019-03-12T11:42:05.341Z,5.70
2019-03-12T11:44:36.503Z,7.03
2019-03-12T11:47:07.873Z,6.45
2019-03-12T11:49:39.961Z,6.62
2019-03-12T11:52:11.117Z,5.05
2019-03-12T11:54:44.737Z,6.87
2019-03-12T11:57:17.733Z,4.58
2019-03-12T11:59:49.106Z,3.65
2019-03-12T12:02:20.377Z,5.80
2019-03-12T12:04:51.825Z,5.87
2019-03-12T12:07:24.533Z,4.87
2019-03-12T12:09:55.548Z,5.37
2019-03-12T12:12:27.619Z,6.37
2019-03-12T12:14:59.737Z,5.35
2019-03-12T12:17:30.960Z,5.62
2019-03-12T12:20:03.579Z,6.37
2019-03-12T12:22:34.587Z,4.72
2019-03-12T12:25:08.863Z,5.17
2019-03-12T12:27:41.069Z,6.17
2019-03-12T12:30:15.227Z,10.72
2019-03-12T12:35:16.761Z,7.10
2019-03-12T12:37:49.214Z,5.22
2019-03-12T12:40:21.695Z,6.58
2019-03-12T12:42:52.749Z,8.98
2019-03-12T12:45:29.372Z,8.78
2019-03-12T12:48:00.387Z,6.12
2019-03-12T12:50:32.595Z,5.95
2019-03-12T12:53:03.690Z,24.77
2019-03-12T12:55:34.905Z,3.60
2019-03-12T12:58:06.257Z,8.40
2019-03-12T13:00:38.434Z,3.75
2019-03-12T13:03:09.856Z,7.53
2019-03-12T13:05:40.987Z,9.20
2019-03-12T13:08:12.149Z,5.67
2019-03-12T13:10:45.556Z,7.35
2019-03-12T13:13:20.559Z,11.00
2019-03-12T13:15:52.807Z,7.87
2019-03-12T13:18:25.582Z,7.47
2019-03-12T13:20:56.870Z,14.83
2019-03-12T13:23:27.868Z,30.32
2019-03-12T13:25:59.076Z,11.38
2019-03-12T13:28:31.097Z,19.07
2019-03-12T13:31:02.236Z,29.72
2019-03-12T13:33:33.450Z,11.45
2019-03-12T13:36:06.630Z,11.40
2019-03-12T13:38:45.788Z,11.23
2019-03-12T13:41:11.333Z,7.90
2019-03-12T13:43:43.643Z,8.43
2019-03-12T13:46:14.770Z,11.43
2019-03-12T13:48:46.952Z,9.68
2019-03-12T13:51:20.510Z,12.75
2019-03-12T13:53:52.683Z,8.60
2019-03-12T13:56:23.768Z,13.75
2019-03-12T13:58:54.758Z,15.50
2019-03-12T14:01:26.185Z,12.05
2019-03-12T14:04:10.078Z,13.83
2019-03-12T14:06:37.487Z,7.90
2019-03-12T14:09:08.131Z,5.03
2019-03-12T14:11:40.749Z,11.22
2019-03-12T14:14:11.836Z,5.83
2019-03-12T14:16:44.007Z,11.55
2019-03-12T14:19:15.083Z,14.65
2019-03-12T14:21:46.345Z,13.38
2019-03-12T14:24:17.455Z,9.60
2019-03-12T14:26:49.674Z,10.60
2019-03-12T14:29:20.718Z,16.95
2019-03-12T14:31:53.049Z,12.80
2019-03-12T14:34:30.699Z,11.85
2019-03-12T14:37:02.074Z,12.90
2019-03-12T14:39:33.093Z,17.25
2019-03-12T14:42:04.320Z,12.95
2019-03-12T14:44:35.955Z,27.40
2019-03-12T14:47:07.686Z,16.97
2019-03-12T14:49:38.927Z,13.98
2019-03-12T14:52:11.235Z,16.27
2019-03-12T14:54:42.468Z,18.57
2019-03-12T14:57:13.681Z,16.45
2019-03-12T14:59:45.886Z,14.38
2019-03-12T15:02:17.897Z,14.90
2019-03-12T15:04:50.036Z,10.80
2019-03-12T15:07:26.357Z,7.60
2019-03-12T15:09:57.532Z,16.93
2019-03-12T15:12:28.794Z,18.37
2019-03-12T15:15:00.052Z,23.98
2019-03-12T15:17:34.040Z,21.68
2019-03-12T15:20:10.013Z,24.57
2019-03-12T15:22:41.210Z,25.43
2019-03-12T15:25:14.407Z,21.33
2019-03-12T15:27:45.573Z,24.60
2019-03-12T15:30:20.020Z,21.80
2019-03-12T15:32:51.211Z,20.50
2019-03-12T15:35:22.361Z,22.67
2019-03-12T15:37:54.537Z,22.17
2019-03-12T15:40:25.712Z,22.25
2019-03-12T15:42:57.094Z,20.72
2019-03-12T15:45:28.196Z,22.77
2019-03-12T15:47:59.566Z,18.92
2019-03-12T15:50:30.695Z,20.15
2019-03-12T15:53:01.971Z,128.23
2019-03-12T15:55:33.243Z,79.22
2019-03-12T15:58:05.389Z,30.92
2019-03-12T16:00:53.836Z,23.75
2019-03-12T16:03:25.121Z,33.63
2019-03-12T16:05:56.525Z,31.93
2019-03-12T16:08:28.183Z,24.50
2019-03-12T16:10:59.280Z,23.05
2019-03-12T16:13:30.589Z,26.05
2019-03-12T16:16:01.904Z,27.82
2019-03-12T16:18:35.129Z,29.87
2019-03-12T16:21:07.387Z,33.67
2019-03-12T16:23:38.866Z,32.17
2019-03-12T16:26:12.354Z,28.40
2019-03-12T16:28:45.207Z,34.75
2019-03-12T16:31:16.762Z,34.27
2019-03-12T16:33:48.321Z,46.98
2019-03-12T16:36:19.860Z,42.70
2019-03-12T16:38:51.288Z,36.20
2019-03-12T16:41:23.909Z,37.75
2019-03-12T16:43:55.606Z,50.78
2019-03-12T16:46:27.138Z,40.67
2019-03-12T16:48:58.251Z,39.05
2019-03-12T16:51:29.306Z,36.08
2019-03-12T16:54:00.399Z,37.38
2019-03-12T16:56:44.170Z,39.83
2019-03-12T16:59:08.266Z,38.45
2019-03-12T17:01:38.135Z,48.00
2019-03-12T17:04:09.838Z,34.38
2019-03-12T17:06:41.493Z,39.92
2019-03-12T17:09:13.232Z,34.25
2019-03-12T17:11:47.215Z,30.70
2019-03-12T17:14:18.818Z,34.90
2019-03-12T17:16:51.523Z,30.80
2019-03-12T17:19:24.104Z,35.83
2019-03-12T17:21:55.557Z,39.78
2019-03-12T17:24:27.120Z,53.70
2019-03-12T17:27:00.809Z,55.08
2019-03-12T17:29:32.460Z,115.77
2019-03-12T17:32:04.755Z,58.38
2019-03-12T17:34:37.165Z,39.67
2019-03-12T17:37:09.616Z,41.33
2019-03-12T17:39:41.159Z,53.35
2019-03-12T17:42:12.385Z,54.05
2019-03-12T17:44:43.736Z,47.03
2019-03-12T17:47:15.197Z,54.90
2019-03-12T17:49:46.598Z,76.30
2019-03-12T17:52:17.837Z,68.12
2019-03-12T17:54:49.039Z,72.80
2019-03-12T17:57:21.125Z,101.00
2019-03-12T17:59:53.017Z,83.85
2019-03-12T18:02:25.815Z,90.05
2019-03-12T18:04:57.590Z,93.00
2019-03-12T18:07:29.151Z,100.40
2019-03-12T18:10:02.085Z,90.20
2019-03-12T18:12:34.948Z,92.78
2019-03-12T18:15:10.072Z,98.67
2019-03-12T18:17:41.953Z,94.40
2019-03-12T18:20:16.645Z,101.45
2019-03-12T18:22:47.977Z,92.85
2019-03-12T18:25:22.571Z,105.17
2019-03-12T18:27:54.177Z,98.55
2019-03-12T18:30:28.083Z,97.08
2019-03-12T18:32:59.546Z,108.30
2019-03-12T18:35:30.972Z,95.85
2019-03-12T18:38:02.555Z,102.95
2019-03-12T18:40:34.147Z,128.65
2019-03-12T18:43:05.813Z,114.67
2019-03-12T18:45:38.363Z,133.43
2019-03-12T18:48:10.611Z,111.77
2019-03-12T18:50:42.049Z,118.77
2019-03-12T18:53:13.410Z,103.40
2019-03-12T18:55:48.088Z,118.35
2019-03-12T18:58:20.710Z,146.95
2019-03-12T19:00:52.437Z,131.67
2019-03-12T19:03:24.241Z,128.35
2019-03-12T19:05:56.005Z,141.37
2019-03-12T19:08:31.684Z,125.80
2019-03-12T19:11:02.615Z,129.45
2019-03-12T19:13:34.833Z,129.53
2019-03-12T19:16:06.726Z,130.97
2019-03-12T19:18:39.958Z,131.60
2019-03-12T19:21:12.463Z,138.37
2019-03-12T19:23:44.554Z,138.18
2019-03-12T19:26:17.764Z,137.95
2019-03-12T19:28:52.027Z,142.87
2019-03-12T19:31:25.398Z,140.45
2019-03-12T19:34:00.559Z,137.52
2019-03-12T19:36:33.593Z,123.28
2019-03-12T19:39:08.156Z,107.30
2019-03-12T19:41:41.145Z,100.15
2019-03-12T19:44:13.853Z,89.05
2019-03-12T19:46:45.478Z,90.72
2019-03-12T19:49:16.932Z,92.67
2019-03-12T19:51:48.349Z,101.30
2019-03-12T19:54:19.950Z,108.78
2019-03-12T19:56:51.789Z,113.75
2019-03-12T19:59:23.664Z,100.15
2019-03-12T20:01:56.069Z,109.37
2019-03-12T20:04:29.193Z,120.17
2019-03-12T20:07:00.936Z,109.32
2019-03-12T20:09:35.899Z,109.67
2019-03-12T20:12:14.919Z,111.30
2019-03-12T20:15:19.803Z,113.85
2019-03-12T20:18:13.030Z,126.25
2019-03-12T20:21:00.542Z,122.57
2019-03-12T20:24:01.824Z,130.15
2019-03-12T20:26:55.117Z,122.67
2019-03-12T20:30:06.251Z,123.72
2019-03-12T20:32:58.902Z,112.97
2019-03-12T20:36:09.427Z,115.40
2019-03-12T20:39:00.857Z,112.83
2019-03-12T20:42:10.638Z,98.47
2019-03-12T20:45:02.588Z,100.10
2019-03-12T20:47:57.558Z,96.20
2019-03-12T20:50:37.831Z,82.40
2019-03-12T20:53:12.458Z,86.53
2019-03-12T20:56:17.689Z,78.55
2019-03-12T20:59:16.784Z,85.53
2019-03-12T21:02:24.642Z,74.22
2019-03-12T21:05:16.786Z,75.45
2019-03-12T21:07:57.165Z,87.08
2019-03-12T21:11:01.460Z,88.12
2019-03-12T21:13:54.199Z,86.75
2019-03-12T21:16:51.562Z,84.65
2019-03-12T21:19:51.851Z,75.80
2019-03-12T21:22:46.342Z,77.62
2019-03-12T21:25:30.188Z,78.52
2019-03-12T21:28:19.768Z,74.62
2019-03-12T21:30:52.648Z,72.67
2019-03-12T21:33:23.809Z,75.95
2019-03-12T21:35:55.146Z,68.30
2019-03-12T21:38:27.726Z,75.40
2019-03-12T21:40:59.188Z,75.20
2019-03-12T21:43:30.841Z,72.65
2019-03-12T21:46:02.307Z,79.22
2019-03-12T21:48:33.749Z,96.02
2019-03-12T21:51:04.887Z,79.10
2019-03-12T21:53:36.233Z,78.55
2019-03-12T21:56:07.563Z,79.17
2019-03-12T21:58:39.036Z,83.25
2019-03-12T22:01:10.464Z,71.95
2019-03-12T22:03:42.037Z,68.80
2019-03-12T22:06:13.382Z,67.60
2019-03-12T22:08:44.737Z,67.75
2019-03-12T22:11:16.198Z,78.20
2019-03-12T22:13:47.436Z,65.42
2019-03-12T22:16:18.852Z,64.87
2019-03-12T22:18:50.472Z,62.00
2019-03-12T22:21:23.152Z,61.55
2019-03-12T22:23:54.579Z,55.55
2019-03-12T22:26:26.903Z,63.13
2019-03-12T22:28:58.397Z,64.75
2019-03-12T22:31:29.578Z,72.67
2019-03-12T22:34:00.897Z,65.70
2019-03-12T22:36:33.579Z,57.00
2019-03-12T22:39:05.753Z,54.83
2019-03-12T22:41:37.509Z,52.40
2019-03-12T22:44:08.955Z,57.33
2019-03-12T22:46:41.746Z,53.10
2019-03-12T22:49:13.300Z,56.55
2019-03-12T22:51:44.953Z,47.70
2019-03-12T22:54:16.199Z,46.85
2019-03-12T22:56:48.331Z,45.30
2019-03-12T22:59:20.474Z,43.08
2019-03-12T23:02:09.870Z,41.37
2019-03-12T23:04:59.385Z,34.53
2019-03-12T23:07:48.089Z,39.40
2019-03-12T23:10:21.755Z,29.07
2019-03-12T23:12:54.538Z,33.38
2019-03-12T23:15:27.216Z,30.35
2019-03-12T23:17:59.482Z,23.27
2019-03-12T23:20:32.498Z,24.80
2019-03-12T23:23:05.534Z,18.60
2019-03-12T23:25:37.062Z,21.75
2019-03-12T23:28:08.885Z,21.33
2019-03-12T23:30:42.076Z,17.83
2019-03-12T23:33:15.357Z,25.03
2019-03-12T23:35:47.936Z,20.08
2019-03-12T23:38:18.972Z,17.00
2019-03-12T23:40:50.123Z,16.80
2019-03-12T23:43:23.090Z,16.23
2019-03-12T23:45:54.274Z,20.02
2019-03-12T23:48:25.603Z,19.02
2019-03-12T23:50:56.956Z,19.65
2019-03-12T23:53:29.440Z,20.00
2019-03-12T23:56:00.886Z,20.85
2019-03-12T23:58:32.065Z,22.93
